sensor_id;sensor_type;location;lat;lon;timestamp;temperature;humidity
5647;DHT22;2845;48.626;9.362;2024-03-22T00:01:58;7.10;99.90
5647;DHT22;2845;48.626;9.362;2024-03-22T00:04:30;6.90;99.80
5647;DHT22;2845;48.626;9.362;2024-03-22T00:07:03;6.80;99.90
5647;DHT22;2845;48.626;9.362;2024-03-22T00:09:36;6.70;99.90
5647;DHT22;2845;48.626;9.362;2024-03-22T00:12:09;7.10;99.90
5647;DHT22;2845;48.626;9.362;2024-03-22T00:14:42;6.70;99.90
5647;DHT22;2845;48.626;9.362;2024-03-22T00:17:15;6.60;99.90
5647;DHT22;2845;48.626;9.362;2024-03-22T00:19:48;6.50;99.90
5647;DHT22;2845;48.626;9.362;2024-03-22T00:22:21;6.50;99.80
5647;DHT22;2845;48.626;9.362;2024-03-22T00:24:53;3.50;99.20
5647;DHT22;2845;48.626;9.362;2024-03-22T00:27:26;6.40;99.90
5647;DHT22;2845;48.626;9.362;2024-03-22T00:30:00;6.40;99.90
5647;DHT22;2845;48.626;9.362;2024-03-22T00:32:33;6.30;99.90
5647;DHT22;2845;48.626;9.362;2024-03-22T00:35:06;6.30;99.90
5647;DHT22;2845;48.626;9.362;2024-03-22T00:37:39;6.30;99.90
5647;DHT22;2845;48.626;9.362;2024-03-22T00:40:12;6.20;99.90
5647;DHT22;2845;48.626;9.362;2024-03-22T00:42:45;6.20;99.90
5647;DHT22;2845;48.626;9.362;2024-03-22T00:45:18;6.10;99.90
5647;DHT22;2845;48.626;9.362;2024-03-22T00:47:51;6.10;99.90
5647;DHT22;2845;48.626;9.362;2024-03-22T00:50:24;6.10;99.90
5647;DHT22;2845;48.626;9.362;2024-03-22T00:52:57;6.20;99.90
5647;DHT22;2845;48.626;9.362;2024-03-22T00:55:29;6.20;99.90
5647;DHT22;2845;48.626;9.362;2024-03-22T00:58:02;6.10;99.90
5647;DHT22;2845;48.626;9.362;2024-03-22T01:00:36;6.00;99.90
5647;DHT22;2845;48.626;9.362;2024-03-22T01:03:09;6.00;99.90
5647;DHT22;2845;48.626;9.362;2024-03-22T01:05:41;5.80;99.90
5647;DHT22;2845;48.626;9.362;2024-03-22T01:08:16;5.80;99.90
5647;DHT22;2845;48.626;9.362;2024-03-22T01:10:48;5.80;99.90
5647;DHT22;2845;48.626;9.362;2024-03-22T01:13:21;5.70;99.90
5647;DHT22;2845;48.626;9.362;2024-03-22T01:15:55;5.60;99.90
5647;DHT22;2845;48.626;9.362;2024-03-22T01:18:28;5.70;99.90
5647;DHT22;2845;48.626;9.362;2024-03-22T01:21:00;5.20;99.90
5647;DHT22;2845;48.626;9.362;2024-03-22T01:23:34;5.60;99.90
5647;DHT22;2845;48.626;9.362;2024-03-22T01:26:06;5.60;99.90
5647;DHT22;2845;48.626;9.362;2024-03-22T01:28:39;5.60;99.90
5647;DHT22;2845;48.626;9.362;2024-03-22T01:31:13;5.60;99.90
5647;DHT22;2845;48.626;9.362;2024-03-22T01:33:46;5.50;99.90
5647;DHT22;2845;48.626;9.362;2024-03-22T01:36:19;5.50;99.90
5647;DHT22;2845;48.626;9.362;2024-03-22T01:38:51;5.40;99.90
5647;DHT22;2845;48.626;9.362;2024-03-22T01:41:24;5.30;99.90
5647;DHT22;2845;48.626;9.362;2024-03-22T01:43:57;5.30;99.90
5647;DHT22;2845;48.626;9.362;2024-03-22T01:46:32;5.30;99.90
5647;DHT22;2845;48.626;9.362;2024-03-22T01:49:04;5.40;99.90
5647;DHT22;2845;48.626;9.362;2024-03-22T01:51:37;6.00;99.90
5647;DHT22;2845;48.626;9.362;2024-03-22T01:54:09;5.50;99.90
5647;DHT22;2845;48.626;9.362;2024-03-22T01:56:43;5.40;99.90
5647;DHT22;2845;48.626;9.362;2024-03-22T01:59:16;5.20;99.90
5647;DHT22;2845;48.626;9.362;2024-03-22T02:01:51;5.20;99.90
5647;DHT22;2845;48.626;9.362;2024-03-22T02:04:23;5.10;99.90
5647;DHT22;2845;48.626;9.362;2024-03-22T02:06:56;8.50;99.90
5647;DHT22;2845;48.626;9.362;2024-03-22T02:09:28;5.10;99.90
5647;DHT22;2845;48.626;9.362;2024-03-22T02:12:01;5.10;99.90
5647;DHT22;2845;48.626;9.362;2024-03-22T02:14:34;7.50;99.90
5647;DHT22;2845;48.626;9.362;2024-03-22T02:17:08;5.10;99.90
5647;DHT22;2845;48.626;9.362;2024-03-22T02:19:40;5.10;99.90
5647;DHT22;2845;48.626;9.362;2024-03-22T02:22:13;5.10;99.90
5647;DHT22;2845;48.626;9.362;2024-03-22T02:24:47;5.10;99.90
5647;DHT22;2845;48.626;9.362;2024-03-22T02:27:20;5.00;99.90
5647;DHT22;2845;48.626;9.362;2024-03-22T02:29:52;5.10;99.90
5647;DHT22;2845;48.626;9.362;2024-03-22T02:32:25;5.10;99.90
5647;DHT22;2845;48.626;9.362;2024-03-22T02:34:57;5.10;99.90
5647;DHT22;2845;48.626;9.362;2024-03-22T02:37:31;5.20;99.90
5647;DHT22;2845;48.626;9.362;2024-03-22T02:40:06;5.20;99.90
5647;DHT22;2845;48.626;9.362;2024-03-22T02:42:40;5.20;99.90
5647;DHT22;2845;48.626;9.362;2024-03-22T02:45:12;5.10;99.90
5647;DHT22;2845;48.626;9.362;2024-03-22T02:47:46;7.80;99.90
5647;DHT22;2845;48.626;9.362;2024-03-22T02:50:18;5.10;99.90
5647;DHT22;2845;48.626;9.362;2024-03-22T02:52:51;5.00;99.90
5647;DHT22;2845;48.626;9.362;2024-03-22T02:55:24;4.90;99.90
5647;DHT22;2845;48.626;9.362;2024-03-22T02:57:58;4.90;99.90
5647;DHT22;2845;48.626;9.362;2024-03-22T03:00:30;4.90;99.90
5647;DHT22;2845;48.626;9.362;2024-03-22T03:03:04;4.80;99.90
5647;DHT22;2845;48.626;9.362;2024-03-22T03:05:36;4.90;99.90
5647;DHT22;2845;48.626;9.362;2024-03-22T03:08:09;4.90;99.90
5647;DHT22;2845;48.626;9.362;2024-03-22T03:10:43;4.80;99.90
5647;DHT22;2845;48.626;9.362;2024-03-22T03:13:17;4.80;99.90
5647;DHT22;2845;48.626;9.362;2024-03-22T03:15:49;4.60;99.90
5647;DHT22;2845;48.626;9.362;2024-03-22T03:18:22;4.70;99.90
5647;DHT22;2845;48.626;9.362;2024-03-22T03:20:54;4.60;99.90
5647;DHT22;2845;48.626;9.362;2024-03-22T03:23:27;4.50;99.90
5647;DHT22;2845;48.626;9.362;2024-03-22T03:26:01;4.50;99.90
5647;DHT22;2845;48.626;9.362;2024-03-22T03:28:34;4.30;99.90
5647;DHT22;2845;48.626;9.362;2024-03-22T03:33:39;4.30;99.90
5647;DHT22;2845;48.626;9.362;2024-03-22T03:36:12;4.40;99.90
5647;DHT22;2845;48.626;9.362;2024-03-22T03:38:45;4.30;99.90
5647;DHT22;2845;48.626;9.362;2024-03-22T03:41:18;4.40;99.90
5647;DHT22;2845;48.626;9.362;2024-03-22T03:43:51;4.50;99.90
5647;DHT22;2845;48.626;9.362;2024-03-22T03:46:23;4.40;99.90
5647;DHT22;2845;48.626;9.362;2024-03-22T03:48:57;4.40;99.90
5647;DHT22;2845;48.626;9.362;2024-03-22T03:51:29;4.40;99.90
5647;DHT22;2845;48.626;9.362;2024-03-22T03:54:02;4.40;99.90
5647;DHT22;2845;48.626;9.362;2024-03-22T03:56:36;4.30;99.90
5647;DHT22;2845;48.626;9.362;2024-03-22T03:59:12;4.20;99.90
5647;DHT22;2845;48.626;9.362;2024-03-22T04:01:44;4.10;99.90
5647;DHT22;2845;48.626;9.362;2024-03-22T04:04:17;4.10;99.90
5647;DHT22;2845;48.626;9.362;2024-03-22T04:06:49;4.10;99.90
5647;DHT22;2845;48.626;9.362;2024-03-22T04:09:22;4.10;99.90
5647;DHT22;2845;48.626;9.362;2024-03-22T04:11:56;4.10;99.90
5647;DHT22;2845;48.626;9.362;2024-03-22T04:14:31;4.20;99.90
5647;DHT22;2845;48.626;9.362;2024-03-22T04:17:03;4.10;99.90
5647;DHT22;2845;48.626;9.362;2024-03-22T04:19:36;4.10;99.90
5647;DHT22;2845;48.626;9.362;2024-03-22T04:22:08;4.00;99.90
5647;DHT22;2845;48.626;9.362;2024-03-22T04:24:41;3.90;99.90
5647;DHT22;2845;48.626;9.362;2024-03-22T04:27:15;4.00;99.90
5647;DHT22;2845;48.626;9.362;2024-03-22T04:29:48;4.00;99.90
5647;DHT22;2845;48.626;9.362;2024-03-22T04:32:20;4.00;99.90
5647;DHT22;2845;48.626;9.362;2024-03-22T04:34:53;4.00;99.90
5647;DHT22;2845;48.626;9.362;2024-03-22T04:37:26;4.10;99.90
5647;DHT22;2845;48.626;9.362;2024-03-22T04:39:59;4.00;99.90
5647;DHT22;2845;48.626;9.362;2024-03-22T04:42:34;4.00;99.90
5647;DHT22;2845;48.626;9.362;2024-03-22T04:45:06;4.00;99.90
5647;DHT22;2845;48.626;9.362;2024-03-22T04:47:40;3.90;99.90
5647;DHT22;2845;48.626;9.362;2024-03-22T04:50:12;3.90;99.90
5647;DHT22;2845;48.626;9.362;2024-03-22T04:52:46;4.00;99.90
5647;DHT22;2845;48.626;9.362;2024-03-22T04:55:18;4.00;99.90
5647;DHT22;2845;48.626;9.362;2024-03-22T04:57:53;4.00;99.90
5647;DHT22;2845;48.626;9.362;2024-03-22T05:00:25;4.00;99.90
5647;DHT22;2845;48.626;9.362;2024-03-22T05:02:58;3.90;99.90
5647;DHT22;2845;48.626;9.362;2024-03-22T05:05:30;3.90;99.90
5647;DHT22;2845;48.626;9.362;2024-03-22T05:08:04;6.30;99.90
5647;DHT22;2845;48.626;9.362;2024-03-22T05:10:37;4.10;99.90
5647;DHT22;2845;48.626;9.362;2024-03-22T05:13:11;4.10;99.90
5647;DHT22;2845;48.626;9.362;2024-03-22T05:15:43;4.20;99.90
5647;DHT22;2845;48.626;9.362;2024-03-22T05:18:16;4.20;99.90
5647;DHT22;2845;48.626;9.362;2024-03-22T05:20:49;4.30;99.90
5647;DHT22;2845;48.626;9.362;2024-03-22T05:23:22;4.30;99.90
5647;DHT22;2845;48.626;9.362;2024-03-22T05:25:54;4.30;99.90
5647;DHT22;2845;48.626;9.362;2024-03-22T05:28:29;4.20;99.90
5647;DHT22;2845;48.626;9.362;2024-03-22T05:31:02;4.20;99.90
5647;DHT22;2845;48.626;9.362;2024-03-22T05:33:35;4.20;99.90
5647;DHT22;2845;48.626;9.362;2024-03-22T05:36:07;4.30;99.90
5647;DHT22;2845;48.626;9.362;2024-03-22T05:38:40;4.20;99.90
5647;DHT22;2845;48.626;9.362;2024-03-22T05:41:13;4.30;99.90
5647;DHT22;2845;48.626;9.362;2024-03-22T05:43:47;4.30;99.90
5647;DHT22;2845;48.626;9.362;2024-03-22T05:46:19;4.30;99.90
5647;DHT22;2845;48.626;9.362;2024-03-22T05:48:52;4.40;99.90
5647;DHT22;2845;48.626;9.362;2024-03-22T05:51:25;4.40;99.90
5647;DHT22;2845;48.626;9.362;2024-03-22T05:53:58;4.50;99.90
5647;DHT22;2845;48.626;9.362;2024-03-22T05:56:30;4.50;99.90
5647;DHT22;2845;48.626;9.362;2024-03-22T05:59:04;4.60;99.90
5647;DHT22;2845;48.626;9.362;2024-03-22T06:01:37;4.60;99.90
5647;DHT22;2845;48.626;9.362;2024-03-22T06:04:10;7.40;99.90
5647;DHT22;2845;48.626;9.362;2024-03-22T06:06:43;5.70;99.90
5647;DHT22;2845;48.626;9.362;2024-03-22T06:09:16;4.50;99.90
5647;DHT22;2845;48.626;9.362;2024-03-22T06:11:55;4.90;99.90
5647;DHT22;2845;48.626;9.362;2024-03-22T06:14:30;5.00;99.90
5647;DHT22;2845;48.626;9.362;2024-03-22T06:17:03;5.10;99.90
5647;DHT22;2845;48.626;9.362;2024-03-22T06:19:37;5.20;99.90
5647;DHT22;2845;48.626;9.362;2024-03-22T06:22:10;5.20;99.90
5647;DHT22;2845;48.626;9.362;2024-03-22T06:24:44;5.20;99.90
5647;DHT22;2845;48.626;9.362;2024-03-22T06:27:17;5.20;99.90
5647;DHT22;2845;48.626;9.362;2024-03-22T06:29:51;5.20;99.90
5647;DHT22;2845;48.626;9.362;2024-03-22T06:32:23;5.20;99.90
5647;DHT22;2845;48.626;9.362;2024-03-22T06:34:56;5.30;99.90
5647;DHT22;2845;48.626;9.362;2024-03-22T06:37:29;5.40;99.90
5647;DHT22;2845;48.626;9.362;2024-03-22T06:40:02;5.50;99.90
5647;DHT22;2845;48.626;9.362;2024-03-22T06:42:36;5.60;99.90
5647;DHT22;2845;48.626;9.362;2024-03-22T06:45:11;5.70;99.90
5647;DHT22;2845;48.626;9.362;2024-03-22T06:47:43;5.80;99.90
5647;DHT22;2845;48.626;9.362;2024-03-22T06:50:16;5.90;99.90
5647;DHT22;2845;48.626;9.362;2024-03-22T06:52:49;6.10;99.90
5647;DHT22;2845;48.626;9.362;2024-03-22T06:55:22;6.30;99.90
5647;DHT22;2845;48.626;9.362;2024-03-22T06:57:55;6.50;99.90
5647;DHT22;2845;48.626;9.362;2024-03-22T07:00:29;6.60;99.80
5647;DHT22;2845;48.626;9.362;2024-03-22T07:05:37;6.90;99.50
5647;DHT22;2845;48.626;9.362;2024-03-22T07:08:09;7.10;99.60
5647;DHT22;2845;48.626;9.362;2024-03-22T07:10:42;9.00;99.90
5647;DHT22;2845;48.626;9.362;2024-03-22T07:15:49;7.30;99.20
5647;DHT22;2845;48.626;9.362;2024-03-22T07:18:21;7.40;99.30
5647;DHT22;2845;48.626;9.362;2024-03-22T07:20:54;7.60;99.10
5647;DHT22;2845;48.626;9.362;2024-03-22T07:23:27;7.70;98.90
5647;DHT22;2845;48.626;9.362;2024-03-22T07:26:00;7.80;98.80
5647;DHT22;2845;48.626;9.362;2024-03-22T07:28:32;7.90;98.70
5647;DHT22;2845;48.626;9.362;2024-03-22T07:31:07;8.10;98.80
5647;DHT22;2845;48.626;9.362;2024-03-22T07:33:39;8.20;98.50
5647;DHT22;2845;48.626;9.362;2024-03-22T07:36:15;8.40;98.40
5647;DHT22;2845;48.626;9.362;2024-03-22T07:38:48;8.50;98.20
5647;DHT22;2845;48.626;9.362;2024-03-22T07:41:21;8.60;97.90
5647;DHT22;2845;48.626;9.362;2024-03-22T07:43:54;8.80;97.90
5647;DHT22;2845;48.626;9.362;2024-03-22T07:46:28;8.90;97.80
5647;DHT22;2845;48.626;9.362;2024-03-22T07:49:00;9.10;98.00
5647;DHT22;2845;48.626;9.362;2024-03-22T07:51:36;9.30;97.80
5647;DHT22;2845;48.626;9.362;2024-03-22T07:54:08;9.40;97.60
5647;DHT22;2845;48.626;9.362;2024-03-22T07:56:41;9.60;97.50
5647;DHT22;2845;48.626;9.362;2024-03-22T07:59:13;9.70;97.40
5647;DHT22;2845;48.626;9.362;2024-03-22T08:01:48;9.90;97.30
5647;DHT22;2845;48.626;9.362;2024-03-22T08:04:20;13.10;97.90
5647;DHT22;2845;48.626;9.362;2024-03-22T08:06:53;10.20;97.10
5647;DHT22;2845;48.626;9.362;2024-03-22T08:09:25;10.60;96.90
5647;DHT22;2845;48.626;9.362;2024-03-22T08:11:58;11.70;97.00
5647;DHT22;2845;48.626;9.362;2024-03-22T08:14:30;12.50;97.10
5647;DHT22;2845;48.626;9.362;2024-03-22T08:17:06;10.90;96.50
5647;DHT22;2845;48.626;9.362;2024-03-22T08:19:40;11.10;96.20
5647;DHT22;2845;48.626;9.362;2024-03-22T08:22:13;13.30;96.20
5647;DHT22;2845;48.626;9.362;2024-03-22T08:24:46;11.40;95.60
5647;DHT22;2845;48.626;9.362;2024-03-22T08:27:19;11.50;95.60
5647;DHT22;2845;48.626;9.362;2024-03-22T08:29:51;11.70;95.60
5647;DHT22;2845;48.626;9.362;2024-03-22T08:32:26;12.00;95.40
5647;DHT22;2845;48.626;9.362;2024-03-22T08:34:58;12.20;95.10
5647;DHT22;2845;48.626;9.362;2024-03-22T08:37:32;12.50;94.80
5647;DHT22;2845;48.626;9.362;2024-03-22T08:40:06;12.70;94.50
5647;DHT22;2845;48.626;9.362;2024-03-22T08:42:40;13.00;94.40
5647;DHT22;2845;48.626;9.362;2024-03-22T08:45:12;13.30;94.20
5647;DHT22;2845;48.626;9.362;2024-03-22T08:47:47;13.50;93.60
5647;DHT22;2845;48.626;9.362;2024-03-22T08:50:19;13.80;93.30
5647;DHT22;2845;48.626;9.362;2024-03-22T08:52:52;15.10;93.40
5647;DHT22;2845;48.626;9.362;2024-03-22T08:55:24;15.00;93.10
5647;DHT22;2845;48.626;9.362;2024-03-22T08:57:57;14.30;92.90
5647;DHT22;2845;48.626;9.362;2024-03-22T09:00:29;14.50;92.60
5647;DHT22;2845;48.626;9.362;2024-03-22T09:03:04;14.70;92.40
5647;DHT22;2845;48.626;9.362;2024-03-22T09:05:36;14.90;91.90
5647;DHT22;2845;48.626;9.362;2024-03-22T09:08:09;14.80;91.70
5647;DHT22;2845;48.626;9.362;2024-03-22T09:10:42;16.30;92.10
5647;DHT22;2845;48.626;9.362;2024-03-22T09:13:16;15.20;91.60
5647;DHT22;2845;48.626;9.362;2024-03-22T09:15:48;15.40;91.40
5647;DHT22;2845;48.626;9.362;2024-03-22T09:18:23;15.70;91.20
5647;DHT22;2845;48.626;9.362;2024-03-22T09:20:55;15.60;91.10
5647;DHT22;2845;48.626;9.362;2024-03-22T09:23:28;15.70;91.00
5647;DHT22;2845;48.626;9.362;2024-03-22T09:26:01;15.90;91.00
5647;DHT22;2845;48.626;9.362;2024-03-22T09:28:34;16.70;91.20
5647;DHT22;2845;48.626;9.362;2024-03-22T09:31:06;16.10;90.90
5647;DHT22;2845;48.626;9.362;2024-03-22T09:33:41;16.50;90.80
5647;DHT22;2845;48.626;9.362;2024-03-22T09:36:14;16.30;90.60
5647;DHT22;2845;48.626;9.362;2024-03-22T09:38:47;16.30;90.40
5647;DHT22;2845;48.626;9.362;2024-03-22T09:41:24;16.40;90.50
5647;DHT22;2845;48.626;9.362;2024-03-22T09:43:58;16.50;90.40
5647;DHT22;2845;48.626;9.362;2024-03-22T09:46:32;16.40;90.30
5647;DHT22;2845;48.626;9.362;2024-03-22T09:49:08;16.20;90.00
5647;DHT22;2845;48.626;9.362;2024-03-22T09:51:43;16.20;90.10
5647;DHT22;2845;48.626;9.362;2024-03-22T09:54:16;15.60;90.10
5647;DHT22;2845;48.626;9.362;2024-03-22T09:56:50;16.00;90.10
5647;DHT22;2845;48.626;9.362;2024-03-22T09:59:23;16.00;90.30
5647;DHT22;2845;48.626;9.362;2024-03-22T10:01:56;16.10;90.20
5647;DHT22;2845;48.626;9.362;2024-03-22T10:04:32;16.20;90.00
5647;DHT22;2845;48.626;9.362;2024-03-22T10:07:04;16.40;89.70
5647;DHT22;2845;48.626;9.362;2024-03-22T10:09:37;16.50;89.70
5647;DHT22;2845;48.626;9.362;2024-03-22T10:12:09;16.60;89.20
5647;DHT22;2845;48.626;9.362;2024-03-22T10:14:43;18.70;89.30
5647;DHT22;2845;48.626;9.362;2024-03-22T10:17:15;16.50;88.40
5647;DHT22;2845;48.626;9.362;2024-03-22T10:22:23;16.70;87.90
5647;DHT22;2845;48.626;9.362;2024-03-22T10:24:57;16.80;87.70
5647;DHT22;2845;48.626;9.362;2024-03-22T10:27:32;17.10;87.60
5647;DHT22;2845;48.626;9.362;2024-03-22T10:30:08;17.40;87.30
5647;DHT22;2845;48.626;9.362;2024-03-22T10:32:42;17.60;86.40
5647;DHT22;2845;48.626;9.362;2024-03-22T10:35:18;17.50;85.50
5647;DHT22;2845;48.626;9.362;2024-03-22T10:37:50;17.60;85.00
5647;DHT22;2845;48.626;9.362;2024-03-22T10:40:24;17.60;83.80
5647;DHT22;2845;48.626;9.362;2024-03-22T10:42:56;17.60;83.70
5647;DHT22;2845;48.626;9.362;2024-03-22T10:45:30;17.80;83.80
5647;DHT22;2845;48.626;9.362;2024-03-22T10:48:07;17.80;82.90
5647;DHT22;2845;48.626;9.362;2024-03-22T10:50:42;18.00;82.80
5647;DHT22;2845;48.626;9.362;2024-03-22T10:53:18;18.10;82.70
5647;DHT22;2845;48.626;9.362;2024-03-22T10:55:53;18.20;82.60
5647;DHT22;2845;48.626;9.362;2024-03-22T10:58:27;20.00;83.50
5647;DHT22;2845;48.626;9.362;2024-03-22T11:00:59;18.00;83.00
5647;DHT22;2845;48.626;9.362;2024-03-22T11:03:35;18.10;82.70
5647;DHT22;2845;48.626;9.362;2024-03-22T11:06:08;18.00;81.50
5647;DHT22;2845;48.626;9.362;2024-03-22T11:08:41;17.90;80.70
5647;DHT22;2845;48.626;9.362;2024-03-22T11:11:13;17.80;82.30
5647;DHT22;2845;48.626;9.362;2024-03-22T11:13:47;20.40;82.90
5647;DHT22;2845;48.626;9.362;2024-03-22T11:16:20;18.00;81.20
5647;DHT22;2845;48.626;9.362;2024-03-22T11:18:53;18.00;81.80
5647;DHT22;2845;48.626;9.362;2024-03-22T11:21:27;18.00;82.10
5647;DHT22;2845;48.626;9.362;2024-03-22T11:24:02;17.90;82.40
5647;DHT22;2845;48.626;9.362;2024-03-22T11:26:35;17.80;83.10
5647;DHT22;2845;48.626;9.362;2024-03-22T11:29:08;17.70;82.20
5647;DHT22;2845;48.626;9.362;2024-03-22T11:31:40;17.90;82.40
5647;DHT22;2845;48.626;9.362;2024-03-22T11:34:13;21.90;83.70
5647;DHT22;2845;48.626;9.362;2024-03-22T11:39:22;18.70;80.50
5647;DHT22;2845;48.626;9.362;2024-03-22T11:41:55;19.20;80.80
5647;DHT22;2845;48.626;9.362;2024-03-22T11:44:28;19.10;80.20
5647;DHT22;2845;48.626;9.362;2024-03-22T11:47:01;19.20;79.30
5647;DHT22;2845;48.626;9.362;2024-03-22T11:49:35;19.30;79.60
5647;DHT22;2845;48.626;9.362;2024-03-22T11:52:09;19.30;79.30
5647;DHT22;2845;48.626;9.362;2024-03-22T11:54:42;19.30;79.10
5647;DHT22;2845;48.626;9.362;2024-03-22T11:57:15;19.20;79.40
5647;DHT22;2845;48.626;9.362;2024-03-22T11:59:48;19.20;78.90
5647;DHT22;2845;48.626;9.362;2024-03-22T12:02:21;19.30;79.80
5647;DHT22;2845;48.626;9.362;2024-03-22T12:04:54;19.60;78.30
5647;DHT22;2845;48.626;9.362;2024-03-22T12:07:28;20.20;77.90
5647;DHT22;2845;48.626;9.362;2024-03-22T12:10:02;20.20;77.90
5647;DHT22;2845;48.626;9.362;2024-03-22T12:12:35;16.90;76.00
5647;DHT22;2845;48.626;9.362;2024-03-22T12:15:08;20.20;77.20
5647;DHT22;2845;48.626;9.362;2024-03-22T12:17:40;20.20;77.40
5647;DHT22;2845;48.626;9.362;2024-03-22T12:20:15;20.20;77.60
5647;DHT22;2845;48.626;9.362;2024-03-22T12:22:48;20.10;75.60
5647;DHT22;2845;48.626;9.362;2024-03-22T12:25:21;19.90;76.00
5647;DHT22;2845;48.626;9.362;2024-03-22T12:27:56;17.40;76.40
5647;DHT22;2845;48.626;9.362;2024-03-22T12:30:28;19.80;78.20
5647;DHT22;2845;48.626;9.362;2024-03-22T12:33:02;19.90;78.30
5647;DHT22;2845;48.626;9.362;2024-03-22T12:35:35;20.10;76.90
5647;DHT22;2845;48.626;9.362;2024-03-22T12:38:09;20.40;77.00
5647;DHT22;2845;48.626;9.362;2024-03-22T12:40:46;20.50;75.20
5647;DHT22;2845;48.626;9.362;2024-03-22T12:43:20;20.60;75.00
5647;DHT22;2845;48.626;9.362;2024-03-22T12:45:52;20.50;75.00
5647;DHT22;2845;48.626;9.362;2024-03-22T12:48:25;23.40;76.80
5647;DHT22;2845;48.626;9.362;2024-03-22T12:50:57;20.70;75.40
5647;DHT22;2845;48.626;9.362;2024-03-22T12:53:32;20.80;74.70
5647;DHT22;2845;48.626;9.362;2024-03-22T12:56:04;22.60;74.80
5647;DHT22;2845;48.626;9.362;2024-03-22T12:58:38;20.70;74.50
5647;DHT22;2845;48.626;9.362;2024-03-22T13:01:10;20.50;75.20
5647;DHT22;2845;48.626;9.362;2024-03-22T13:03:44;20.60;75.60
5647;DHT22;2845;48.626;9.362;2024-03-22T13:06:16;20.40;74.50
5647;DHT22;2845;48.626;9.362;2024-03-22T13:08:51;20.40;74.80
5647;DHT22;2845;48.626;9.362;2024-03-22T13:11:23;20.40;74.90
5647;DHT22;2845;48.626;9.362;2024-03-22T13:13:56;20.40;75.20
5647;DHT22;2845;48.626;9.362;2024-03-22T13:16:28;20.40;75.10
5647;DHT22;2845;48.626;9.362;2024-03-22T13:19:02;20.40;75.40
5647;DHT22;2845;48.626;9.362;2024-03-22T13:21:35;20.50;75.60
5647;DHT22;2845;48.626;9.362;2024-03-22T13:24:10;20.50;75.50
5647;DHT22;2845;48.626;9.362;2024-03-22T13:26:42;20.60;75.50
5647;DHT22;2845;48.626;9.362;2024-03-22T13:29:16;20.70;74.20
5647;DHT22;2845;48.626;9.362;2024-03-22T13:31:48;20.70;73.90
5647;DHT22;2845;48.626;9.362;2024-03-22T13:34:21;20.60;73.30
5647;DHT22;2845;48.626;9.362;2024-03-22T13:36:53;22.60;75.60
5647;DHT22;2845;48.626;9.362;2024-03-22T13:39:29;20.40;73.50
5647;DHT22;2845;48.626;9.362;2024-03-22T13:42:01;20.50;74.80
5647;DHT22;2845;48.626;9.362;2024-03-22T13:44:35;22.10;73.40
5647;DHT22;2845;48.626;9.362;2024-03-22T13:47:07;21.90;73.80
5647;DHT22;2845;48.626;9.362;2024-03-22T13:49:40;24.40;76.20
5647;DHT22;2845;48.626;9.362;2024-03-22T13:52:13;20.60;72.40
5647;DHT22;2845;48.626;9.362;2024-03-22T13:54:47;20.50;72.40
5647;DHT22;2845;48.626;9.362;2024-03-22T13:57:20;20.40;72.70
5647;DHT22;2845;48.626;9.362;2024-03-22T13:59:53;20.20;73.90
5647;DHT22;2845;48.626;9.362;2024-03-22T14:02:25;20.00;74.00
5647;DHT22;2845;48.626;9.362;2024-03-22T14:04:59;20.60;73.40
5647;DHT22;2845;48.626;9.362;2024-03-22T14:07:31;21.30;73.20
5647;DHT22;2845;48.626;9.362;2024-03-22T14:10:06;20.50;73.80
5647;DHT22;2845;48.626;9.362;2024-03-22T14:12:40;20.40;72.70
5647;DHT22;2845;48.626;9.362;2024-03-22T14:15:13;20.60;72.80
5647;DHT22;2845;48.626;9.362;2024-03-22T14:17:45;20.90;72.60
5647;DHT22;2845;48.626;9.362;2024-03-22T14:20:19;21.20;72.50
5647;DHT22;2845;48.626;9.362;2024-03-22T14:22:51;21.10;71.20
5647;DHT22;2845;48.626;9.362;2024-03-22T14:25:26;21.10;72.10
5647;DHT22;2845;48.626;9.362;2024-03-22T14:27:59;21.00;70.90
5647;DHT22;2845;48.626;9.362;2024-03-22T14:30:32;21.10;72.10
5647;DHT22;2845;48.626;9.362;2024-03-22T14:33:04;21.30;71.60
5647;DHT22;2845;48.626;9.362;2024-03-22T14:35:38;21.50;70.40
5647;DHT22;2845;48.626;9.362;2024-03-22T14:38:11;21.80;68.70
5647;DHT22;2845;48.626;9.362;2024-03-22T14:40:44;21.80;69.20
5647;DHT22;2845;48.626;9.362;2024-03-22T14:43:18;22.00;71.30
5647;DHT22;2845;48.626;9.362;2024-03-22T14:45:50;21.60;71.10
5647;DHT22;2845;48.626;9.362;2024-03-22T14:48:24;21.50;70.40
5647;DHT22;2845;48.626;9.362;2024-03-22T14:50:56;21.40;71.10
5647;DHT22;2845;48.626;9.362;2024-03-22T14:53:29;21.30;70.90
5647;DHT22;2845;48.626;9.362;2024-03-22T14:56:04;21.20;70.70
5647;DHT22;2845;48.626;9.362;2024-03-22T14:58:40;18.40;69.60
5647;DHT22;2845;48.626;9.362;2024-03-22T15:01:12;21.20;70.50
5647;DHT22;2845;48.626;9.362;2024-03-22T15:03:45;21.30;71.40
5647;DHT22;2845;48.626;9.362;2024-03-22T15:06:18;21.50;71.30
5647;DHT22;2845;48.626;9.362;2024-03-22T15:08:50;21.50;71.50
5647;DHT22;2845;48.626;9.362;2024-03-22T15:11:25;21.60;71.10
5647;DHT22;2845;48.626;9.362;2024-03-22T15:13:57;21.50;70.50
5647;DHT22;2845;48.626;9.362;2024-03-22T15:16:30;21.40;71.00
5647;DHT22;2845;48.626;9.362;2024-03-22T15:19:02;21.20;70.80
5647;DHT22;2845;48.626;9.362;2024-03-22T15:21:36;21.00;71.00
5647;DHT22;2845;48.626;9.362;2024-03-22T15:24:08;20.90;70.70
5647;DHT22;2845;48.626;9.362;2024-03-22T15:26:42;20.80;72.30
5647;DHT22;2845;48.626;9.362;2024-03-22T15:29:15;20.50;71.80
5647;DHT22;2845;48.626;9.362;2024-03-22T15:31:48;20.40;71.10
5647;DHT22;2845;48.626;9.362;2024-03-22T15:34:20;20.30;70.30
5647;DHT22;2845;48.626;9.362;2024-03-22T15:36:54;20.50;69.20
5647;DHT22;2845;48.626;9.362;2024-03-22T15:39:26;20.40;72.10
5647;DHT22;2845;48.626;9.362;2024-03-22T15:42:01;20.30;72.50
5647;DHT22;2845;48.626;9.362;2024-03-22T15:44:33;20.20;72.40
5647;DHT22;2845;48.626;9.362;2024-03-22T15:47:06;19.90;73.70
5647;DHT22;2845;48.626;9.362;2024-03-22T15:49:39;19.70;73.90
5647;DHT22;2845;48.626;9.362;2024-03-22T15:52:12;19.40;74.50
5647;DHT22;2845;48.626;9.362;2024-03-22T15:54:45;19.20;73.50
5647;DHT22;2845;48.626;9.362;2024-03-22T15:57:20;19.00;73.00
5647;DHT22;2845;48.626;9.362;2024-03-22T15:59:52;18.90;73.60
5647;DHT22;2845;48.626;9.362;2024-03-22T16:02:25;18.80;74.90
5647;DHT22;2845;48.626;9.362;2024-03-22T16:04:57;18.70;73.00
5647;DHT22;2845;48.626;9.362;2024-03-22T16:07:30;18.60;72.90
5647;DHT22;2845;48.626;9.362;2024-03-22T16:10:04;21.50;76.20
5647;DHT22;2845;48.626;9.362;2024-03-22T16:12:39;18.50;74.50
5647;DHT22;2845;48.626;9.362;2024-03-22T16:15:12;18.30;72.40
5647;DHT22;2845;48.626;9.362;2024-03-22T16:17:45;18.20;72.90
5647;DHT22;2845;48.626;9.362;2024-03-22T16:20:20;18.10;73.80
5647;DHT22;2845;48.626;9.362;2024-03-22T16:22:53;18.00;74.30
5647;DHT22;2845;48.626;9.362;2024-03-22T16:25:25;17.90;73.30
5647;DHT22;2845;48.626;9.362;2024-03-22T16:27:59;17.80;75.10
5647;DHT22;2845;48.626;9.362;2024-03-22T16:30:32;17.70;72.90
5647;DHT22;2845;48.626;9.362;2024-03-22T16:33:05;17.60;73.70
5647;DHT22;2845;48.626;9.362;2024-03-22T16:35:46;17.50;74.60
5647;DHT22;2845;48.626;9.362;2024-03-22T16:38:32;17.50;73.00
5647;DHT22;2845;48.626;9.362;2024-03-22T16:41:04;17.40;72.50
5647;DHT22;2845;48.626;9.362;2024-03-22T16:43:39;17.30;73.60
5647;DHT22;2845;48.626;9.362;2024-03-22T16:46:11;17.30;73.60
5647;DHT22;2845;48.626;9.362;2024-03-22T16:48:44;17.20;73.30
5647;DHT22;2845;48.626;9.362;2024-03-22T16:51:16;17.20;75.60
5647;DHT22;2845;48.626;9.362;2024-03-22T16:53:49;17.10;74.90
5647;DHT22;2845;48.626;9.362;2024-03-22T16:56:22;17.10;75.00
5647;DHT22;2845;48.626;9.362;2024-03-22T16:58:59;17.10;76.00
5647;DHT22;2845;48.626;9.362;2024-03-22T17:01:31;17.00;77.70